sensor_id;sensor_type;location;lat;lon;timestamp;temperature;humidity
31455;DHT22;18084;53.028;8.834;2023-06-22T04:28:54;17.60;99.90
31455;DHT22;18084;53.028;8.834;2023-06-22T04:31:21;17.70;99.90
31455;DHT22;18084;53.028;8.834;2023-06-22T04:33:46;17.70;99.90
31455;DHT22;18084;53.028;8.834;2023-06-22T04:38:39;17.90;99.90
31455;DHT22;18084;53.028;8.834;2023-06-22T04:41:04;17.90;99.90
31455;DHT22;18084;53.028;8.834;2023-06-22T04:43:30;18.70;99.90
31455;DHT22;18084;53.028;8.834;2023-06-22T04:45:58;18.10;99.90
31455;DHT22;18084;53.028;8.834;2023-06-22T04:48:32;21.30;99.90
31455;DHT22;18084;53.028;8.834;2023-06-22T04:50:59;18.30;99.90
31455;DHT22;18084;53.028;8.834;2023-06-22T04:53:28;21.60;99.90
31455;DHT22;18084;53.028;8.834;2023-06-22T04:55:55;18.30;99.90
31455;DHT22;18084;53.028;8.834;2023-06-22T04:58:20;18.60;96.20
31455;DHT22;18084;53.028;8.834;2023-06-22T05:03:12;19.00;71.50
31455;DHT22;18084;53.028;8.834;2023-06-22T05:05:43;19.10;54.80
31455;DHT22;18084;53.028;8.834;2023-06-22T05:08:09;19.40;29.90
31455;DHT22;18084;53.028;8.834;2023-06-22T05:10:35;19.50;20.00
31455;DHT22;18084;53.028;8.834;2023-06-22T05:13:00;19.60;1.50
31455;DHT22;18084;53.028;8.834;2023-06-22T05:15:26;19.80;1.00
31455;DHT22;18084;53.028;8.834;2023-06-22T05:17:55;20.10;1.00
31455;DHT22;18084;53.028;8.834;2023-06-22T05:20:21;20.30;1.00
31455;DHT22;18084;53.028;8.834;2023-06-22T05:25:13;20.90;99.90
31455;DHT22;18084;53.028;8.834;2023-06-22T05:27:38;23.80;99.90
31455;DHT22;18084;53.028;8.834;2023-06-22T05:30:07;22.50;99.90
31455;DHT22;18084;53.028;8.834;2023-06-22T05:32:33;21.50;99.90
31455;DHT22;18084;53.028;8.834;2023-06-22T05:34:59;21.80;43.10
31455;DHT22;18084;53.028;8.834;2023-06-22T05:37:25;21.80;42.00
31455;DHT22;18084;53.028;8.834;2023-06-22T05:39:51;21.80;1.00
31455;DHT22;18084;53.028;8.834;2023-06-22T05:42:17;22.10;1.00
31455;DHT22;18084;53.028;8.834;2023-06-22T05:44:42;23.30;61.00
31455;DHT22;18084;53.028;8.834;2023-06-22T05:49:34;22.30;99.90
31455;DHT22;18084;53.028;8.834;2023-06-22T05:51:59;23.60;1.00
31455;DHT22;18084;53.028;8.834;2023-06-22T05:54:27;22.90;99.90
31455;DHT22;18084;53.028;8.834;2023-06-22T05:56:52;25.80;1.00
31455;DHT22;18084;53.028;8.834;2023-06-22T05:59:18;23.70;99.90
31455;DHT22;18084;53.028;8.834;2023-06-22T06:01:44;24.00;1.00
31455;DHT22;18084;53.028;8.834;2023-06-22T06:04:09;24.60;99.90
31455;DHT22;18084;53.028;8.834;2023-06-22T06:06:35;27.50;99.90
31455;DHT22;18084;53.028;8.834;2023-06-22T06:09:03;25.00;1.00
31455;DHT22;18084;53.028;8.834;2023-06-22T06:11:29;25.40;99.90
31455;DHT22;18084;53.028;8.834;2023-06-22T06:13:55;25.40;99.90
31455;DHT22;18084;53.028;8.834;2023-06-22T06:16:21;24.90;99.90
31455;DHT22;18084;53.028;8.834;2023-06-22T06:18:46;26.30;99.90
31455;DHT22;18084;53.028;8.834;2023-06-22T06:21:13;26.70;1.00
31455;DHT22;18084;53.028;8.834;2023-06-22T06:23:39;25.50;99.90
31455;DHT22;18084;53.028;8.834;2023-06-22T06:26:04;27.00;99.90
31455;DHT22;18084;53.028;8.834;2023-06-22T06:28:32;26.30;99.90
31455;DHT22;18084;53.028;8.834;2023-06-22T06:30:58;24.40;1.00
31455;DHT22;18084;53.028;8.834;2023-06-22T06:33:24;24.50;1.00
31455;DHT22;18084;53.028;8.834;2023-06-22T06:35:49;25.20;99.90
31455;DHT22;18084;53.028;8.834;2023-06-22T06:40:41;25.00;99.90
31455;DHT22;18084;53.028;8.834;2023-06-22T06:43:07;25.00;99.90
31455;DHT22;18084;53.028;8.834;2023-06-22T06:45:32;24.60;99.90
31455;DHT22;18084;53.028;8.834;2023-06-22T06:48:00;28.10;99.90
31455;DHT22;18084;53.028;8.834;2023-06-22T06:50:25;25.30;99.90
31455;DHT22;18084;53.028;8.834;2023-06-22T06:55:17;26.20;21.80
31455;DHT22;18084;53.028;8.834;2023-06-22T07:00:13;27.40;1.00
31455;DHT22;18084;53.028;8.834;2023-06-22T07:02:41;27.30;1.00
31455;DHT22;18084;53.028;8.834;2023-06-22T07:05:08;27.80;99.90
31455;DHT22;18084;53.028;8.834;2023-06-22T07:07:34;27.80;99.90
31455;DHT22;18084;53.028;8.834;2023-06-22T07:09:59;27.90;99.90
31455;DHT22;18084;53.028;8.834;2023-06-22T07:12:25;28.50;99.90
31455;DHT22;18084;53.028;8.834;2023-06-22T07:14:52;27.80;99.90
31455;DHT22;18084;53.028;8.834;2023-06-22T07:17:17;27.40;99.90
31455;DHT22;18084;53.028;8.834;2023-06-22T07:19:43;27.70;99.90
31455;DHT22;18084;53.028;8.834;2023-06-22T07:22:08;27.40;99.90
31455;DHT22;18084;53.028;8.834;2023-06-22T07:24:34;27.80;99.90
31455;DHT22;18084;53.028;8.834;2023-06-22T07:27:00;29.50;99.90
31455;DHT22;18084;53.028;8.834;2023-06-22T07:29:26;28.50;99.90
31455;DHT22;18084;53.028;8.834;2023-06-22T07:31:52;31.20;99.90
31455;DHT22;18084;53.028;8.834;2023-06-22T07:36:45;28.50;99.90
31455;DHT22;18084;53.028;8.834;2023-06-22T07:41:39;28.00;99.90
31455;DHT22;18084;53.028;8.834;2023-06-22T07:46:32;27.40;99.90
31455;DHT22;18084;53.028;8.834;2023-06-22T07:51:25;27.50;99.90
31455;DHT22;18084;53.028;8.834;2023-06-22T07:53:50;27.90;99.90
31455;DHT22;18084;53.028;8.834;2023-06-22T07:56:16;28.50;99.90
31455;DHT22;18084;53.028;8.834;2023-06-22T07:58:46;30.30;99.90
31455;DHT22;18084;53.028;8.834;2023-06-22T08:01:12;29.10;99.90
31455;DHT22;18084;53.028;8.834;2023-06-22T08:03:38;29.00;99.90
31455;DHT22;18084;53.028;8.834;2023-06-22T08:06:04;29.10;99.90
31455;DHT22;18084;53.028;8.834;2023-06-22T08:10:57;28.00;99.90
31455;DHT22;18084;53.028;8.834;2023-06-22T08:13:22;28.90;99.90
31455;DHT22;18084;53.028;8.834;2023-06-22T08:18:14;28.30;99.90
31455;DHT22;18084;53.028;8.834;2023-06-22T08:20:40;30.60;99.90
31455;DHT22;18084;53.028;8.834;2023-06-22T08:23:05;29.90;99.90
31455;DHT22;18084;53.028;8.834;2023-06-22T08:25:34;30.20;99.90
31455;DHT22;18084;53.028;8.834;2023-06-22T08:28:01;28.80;99.90
31455;DHT22;18084;53.028;8.834;2023-06-22T08:30:27;30.10;99.90
31455;DHT22;18084;53.028;8.834;2023-06-22T08:32:52;30.40;99.90
31455;DHT22;18084;53.028;8.834;2023-06-22T08:37:46;29.50;99.90
31455;DHT22;18084;53.028;8.834;2023-06-22T08:42:45;29.40;99.90
31455;DHT22;18084;53.028;8.834;2023-06-22T08:47:37;28.40;99.90
31455;DHT22;18084;53.028;8.834;2023-06-22T08:50:04;28.80;99.90
31455;DHT22;18084;53.028;8.834;2023-06-22T09:02:14;28.00;99.90
31455;DHT22;18084;53.028;8.834;2023-06-22T09:04:39;28.30;99.90
31455;DHT22;18084;53.028;8.834;2023-06-22T09:07:05;30.90;99.90
31455;DHT22;18084;53.028;8.834;2023-06-22T09:11:56;27.70;99.90
31455;DHT22;18084;53.028;8.834;2023-06-22T09:19:14;28.30;99.90
31455;DHT22;18084;53.028;8.834;2023-06-22T09:21:39;28.10;99.90
31455;DHT22;18084;53.028;8.834;2023-06-22T09:24:05;28.30;99.90
31455;DHT22;18084;53.028;8.834;2023-06-22T09:28:57;27.60;99.90
31455;DHT22;18084;53.028;8.834;2023-06-22T09:31:23;29.90;99.90
31455;DHT22;18084;53.028;8.834;2023-06-22T09:33:52;29.90;99.90
31455;DHT22;18084;53.028;8.834;2023-06-22T09:36:19;30.70;99.90
31455;DHT22;18084;53.028;8.834;2023-06-22T09:38:44;30.30;99.90
31455;DHT22;18084;53.028;8.834;2023-06-22T09:41:10;29.10;99.90
31455;DHT22;18084;53.028;8.834;2023-06-22T09:43:35;29.70;99.90
31455;DHT22;18084;53.028;8.834;2023-06-22T09:53:20;28.30;99.90
31455;DHT22;18084;53.028;8.834;2023-06-22T09:55:46;29.00;99.90
31455;DHT22;18084;53.028;8.834;2023-06-22T10:00:38;28.10;99.90
31455;DHT22;18084;53.028;8.834;2023-06-22T10:07:57;29.30;99.90
31455;DHT22;18084;53.028;8.834;2023-06-22T10:12:57;28.80;99.90
31455;DHT22;18084;53.028;8.834;2023-06-22T10:15:27;28.80;99.90
31455;DHT22;18084;53.028;8.834;2023-06-22T10:17:53;28.70;99.90
31455;DHT22;18084;53.028;8.834;2023-06-22T10:22:46;28.70;99.90
31455;DHT22;18084;53.028;8.834;2023-06-22T10:25:12;28.90;99.90
31455;DHT22;18084;53.028;8.834;2023-06-22T10:27:39;32.40;99.90
31455;DHT22;18084;53.028;8.834;2023-06-22T10:30:08;29.20;99.90
31455;DHT22;18084;53.028;8.834;2023-06-22T10:32:34;29.30;99.90
31455;DHT22;18084;53.028;8.834;2023-06-22T10:37:26;29.20;99.90
31455;DHT22;18084;53.028;8.834;2023-06-22T10:39:51;30.90;99.90
31455;DHT22;18084;53.028;8.834;2023-06-22T10:44:43;28.90;99.90
31455;DHT22;18084;53.028;8.834;2023-06-22T10:49:40;28.80;99.90
31455;DHT22;18084;53.028;8.834;2023-06-22T10:52:07;29.50;99.90
31455;DHT22;18084;53.028;8.834;2023-06-22T10:54:37;28.10;99.90
31455;DHT22;18084;53.028;8.834;2023-06-22T10:57:03;28.10;99.90
31455;DHT22;18084;53.028;8.834;2023-06-22T11:01:58;27.80;99.90
31455;DHT22;18084;53.028;8.834;2023-06-22T11:04:25;27.60;99.90
31455;DHT22;18084;53.028;8.834;2023-06-22T11:11:46;28.30;99.90
31455;DHT22;18084;53.028;8.834;2023-06-22T11:14:12;29.40;99.90
31455;DHT22;18084;53.028;8.834;2023-06-22T11:19:04;28.70;99.90
31455;DHT22;18084;53.028;8.834;2023-06-22T11:38:32;29.60;99.90
31455;DHT22;18084;53.028;8.834;2023-06-22T11:53:09;29.20;99.90
31455;DHT22;18084;53.028;8.834;2023-06-22T11:55:34;30.00;99.90
31455;DHT22;18084;53.028;8.834;2023-06-22T11:58:00;32.80;99.90
31455;DHT22;18084;53.028;8.834;2023-06-22T12:02:55;28.90;99.90
31455;DHT22;18084;53.028;8.834;2023-06-22T12:05:21;29.10;99.90
31455;DHT22;18084;53.028;8.834;2023-06-22T12:27:17;28.50;99.90
31455;DHT22;18084;53.028;8.834;2023-06-22T12:34:38;28.40;99.90
31455;DHT22;18084;53.028;8.834;2023-06-22T16:25:42;21.20;99.90
31455;DHT22;18084;53.028;8.834;2023-06-22T16:28:08;24.30;99.90
31455;DHT22;18084;53.028;8.834;2023-06-22T16:30:33;24.50;99.90
31455;DHT22;18084;53.028;8.834;2023-06-22T16:35:30;21.30;99.90
31455;DHT22;18084;53.028;8.834;2023-06-22T16:37:58;21.20;99.90
31455;DHT22;18084;53.028;8.834;2023-06-22T16:40:24;21.40;99.90
31455;DHT22;18084;53.028;8.834;2023-06-22T16:42:50;23.30;99.90
31455;DHT22;18084;53.028;8.834;2023-06-22T16:45:17;24.80;99.90
31455;DHT22;18084;53.028;8.834;2023-06-22T16:47:45;24.60;99.90
31455;DHT22;18084;53.028;8.834;2023-06-22T16:50:11;22.80;99.90
31455;DHT22;18084;53.028;8.834;2023-06-22T16:52:37;24.50;99.90
31455;DHT22;18084;53.028;8.834;2023-06-22T16:55:06;21.70;99.90
31455;DHT22;18084;53.028;8.834;2023-06-22T16:57:32;21.60;99.90
31455;DHT22;18084;53.028;8.834;2023-06-22T16:59:58;24.30;99.90
31455;DHT22;18084;53.028;8.834;2023-06-22T17:02:24;21.80;99.90
31455;DHT22;18084;53.028;8.834;2023-06-22T17:04:52;24.60;99.90
31455;DHT22;18084;53.028;8.834;2023-06-22T17:07:22;24.10;99.90
31455;DHT22;18084;53.028;8.834;2023-06-22T17:09:50;21.00;99.90
31455;DHT22;18084;53.028;8.834;2023-06-22T17:12:16;24.20;99.90
31455;DHT22;18084;53.028;8.834;2023-06-22T17:14:44;21.90;99.90
31455;DHT22;18084;53.028;8.834;2023-06-22T17:17:15;23.70;99.90
31455;DHT22;18084;53.028;8.834;2023-06-22T17:19:42;21.70;99.90
31455;DHT22;18084;53.028;8.834;2023-06-22T17:24:35;21.60;99.90
31455;DHT22;18084;53.028;8.834;2023-06-22T17:27:01;24.40;99.90
31455;DHT22;18084;53.028;8.834;2023-06-22T17:29:31;21.50;99.90
31455;DHT22;18084;53.028;8.834;2023-06-22T17:31:57;21.60;99.90
31455;DHT22;18084;53.028;8.834;2023-06-22T17:34:26;21.40;99.90
31455;DHT22;18084;53.028;8.834;2023-06-22T17:36:54;22.00;99.90
31455;DHT22;18084;53.028;8.834;2023-06-22T17:39:21;21.50;99.90
31455;DHT22;18084;53.028;8.834;2023-06-22T17:41:48;23.10;99.90
31455;DHT22;18084;53.028;8.834;2023-06-22T17:46:53;21.80;99.90
31455;DHT22;18084;53.028;8.834;2023-06-22T17:49:19;24.60;99.90
31455;DHT22;18084;53.028;8.834;2023-06-22T17:51:45;20.70;99.90
31455;DHT22;18084;53.028;8.834;2023-06-22T17:54:14;22.60;99.90
31455;DHT22;18084;53.028;8.834;2023-06-22T17:56:40;23.70;99.90
31455;DHT22;18084;53.028;8.834;2023-06-22T17:59:05;21.40;99.90
31455;DHT22;18084;53.028;8.834;2023-06-22T18:01:36;24.70;99.90
31455;DHT22;18084;53.028;8.834;2023-06-22T18:04:11;21.10;99.90
31455;DHT22;18084;53.028;8.834;2023-06-22T18:06:41;21.40;99.90
31455;DHT22;18084;53.028;8.834;2023-06-22T18:09:08;20.80;99.90
31455;DHT22;18084;53.028;8.834;2023-06-22T18:11:42;23.60;99.90
31455;DHT22;18084;53.028;8.834;2023-06-22T18:14:08;23.20;99.90
31455;DHT22;18084;53.028;8.834;2023-06-22T18:16:34;20.70;99.90
31455;DHT22;18084;53.028;8.834;2023-06-22T18:19:04;22.30;99.90
31455;DHT22;18084;53.028;8.834;2023-06-22T18:21:30;23.00;99.90
31455;DHT22;18084;53.028;8.834;2023-06-22T18:23:56;21.40;99.90
31455;DHT22;18084;53.028;8.834;2023-06-22T18:26:25;21.80;99.90
31455;DHT22;18084;53.028;8.834;2023-06-22T18:28:55;24.90;99.90
31455;DHT22;18084;53.028;8.834;2023-06-22T18:31:25;20.60;99.90
31455;DHT22;18084;53.028;8.834;2023-06-22T18:33:53;21.50;99.90
31455;DHT22;18084;53.028;8.834;2023-06-22T18:36:31;24.20;99.90
31455;DHT22;18084;53.028;8.834;2023-06-22T18:39:02;22.80;99.90
31455;DHT22;18084;53.028;8.834;2023-06-22T18:41:37;20.90;99.90
31455;DHT22;18084;53.028;8.834;2023-06-22T18:46:50;22.60;99.90
31455;DHT22;18084;53.028;8.834;2023-06-22T18:49:16;21.50;99.90
31455;DHT22;18084;53.028;8.834;2023-06-22T18:51:56;19.90;99.90
31455;DHT22;18084;53.028;8.834;2023-06-22T18:54:24;20.60;99.90
31455;DHT22;18084;53.028;8.834;2023-06-22T18:56:58;23.00;99.90
31455;DHT22;18084;53.028;8.834;2023-06-22T18:59:43;20.50;99.90
31455;DHT22;18084;53.028;8.834;2023-06-22T19:02:15;23.70;99.90
31455;DHT22;18084;53.028;8.834;2023-06-22T19:04:42;23.00;99.90
31455;DHT22;18084;53.028;8.834;2023-06-22T19:09:34;20.30;99.90
31455;DHT22;18084;53.028;8.834;2023-06-22T19:12:22;22.70;99.90
31455;DHT22;18084;53.028;8.834;2023-06-22T19:15:13;20.40;99.90
31455;DHT22;18084;53.028;8.834;2023-06-22T19:17:42;19.80;99.90
31455;DHT22;18084;53.028;8.834;2023-06-22T19:20:11;21.50;99.90
31455;DHT22;18084;53.028;8.834;2023-06-22T19:22:52;20.40;99.90
31455;DHT22;18084;53.028;8.834;2023-06-22T19:25:25;23.90;99.90
31455;DHT22;18084;53.028;8.834;2023-06-22T19:27:52;20.00;99.90
31455;DHT22;18084;53.028;8.834;2023-06-22T19:30:20;18.80;99.90
31455;DHT22;18084;53.028;8.834;2023-06-22T19:32:46;21.00;99.90
31455;DHT22;18084;53.028;8.834;2023-06-22T19:35:19;20.10;99.90
31455;DHT22;18084;53.028;8.834;2023-06-22T19:37:46;19.30;99.90
31455;DHT22;18084;53.028;8.834;2023-06-22T19:40:13;19.90;99.90
31455;DHT22;18084;53.028;8.834;2023-06-22T19:42:40;19.70;99.90
31455;DHT22;18084;53.028;8.834;2023-06-22T19:45:13;24.20;99.90
31455;DHT22;18084;53.028;8.834;2023-06-22T19:47:42;19.90;99.90
31455;DHT22;18084;53.028;8.834;2023-06-22T19:50:10;19.40;99.90
31455;DHT22;18084;53.028;8.834;2023-06-22T19:52:41;19.30;99.90
31455;DHT22;18084;53.028;8.834;2023-06-22T19:55:11;19.80;99.90
31455;DHT22;18084;53.028;8.834;2023-06-22T19:57:43;18.70;99.90
31455;DHT22;18084;53.028;8.834;2023-06-22T20:00:20;19.80;99.90
31455;DHT22;18084;53.028;8.834;2023-06-22T20:02:49;19.80;99.90
31455;DHT22;18084;53.028;8.834;2023-06-22T20:05:15;21.30;99.90
31455;DHT22;18084;53.028;8.834;2023-06-22T20:07:41;22.10;99.90
31455;DHT22;18084;53.028;8.834;2023-06-22T20:10:16;20.20;99.90
31455;DHT22;18084;53.028;8.834;2023-06-22T20:12:42;19.90;99.90
31455;DHT22;18084;53.028;8.834;2023-06-22T20:15:23;19.10;99.90
31455;DHT22;18084;53.028;8.834;2023-06-22T20:20:23;23.70;99.90
31455;DHT22;18084;53.028;8.834;2023-06-22T20:22:49;19.70;99.90
31455;DHT22;18084;53.028;8.834;2023-06-22T20:25:22;19.60;99.90
31455;DHT22;18084;53.028;8.834;2023-06-22T20:27:48;19.40;99.90
31455;DHT22;18084;53.028;8.834;2023-06-22T20:30:15;22.30;99.90
31455;DHT22;18084;53.028;8.834;2023-06-22T20:32:51;19.70;99.90
31455;DHT22;18084;53.028;8.834;2023-06-22T20:35:18;19.10;99.90
31455;DHT22;18084;53.028;8.834;2023-06-22T20:40:11;19.10;99.90
31455;DHT22;18084;53.028;8.834;2023-06-22T20:42:40;16.20;99.90
31455;DHT22;18084;53.028;8.834;2023-06-22T20:45:07;18.80;99.90
31455;DHT22;18084;53.028;8.834;2023-06-22T20:49:59;18.80;99.90
31455;DHT22;18084;53.028;8.834;2023-06-22T20:52:28;18.80;99.90
31455;DHT22;18084;53.028;8.834;2023-06-22T20:57:20;18.70;99.90
31455;DHT22;18084;53.028;8.834;2023-06-22T21:07:07;18.50;99.90
31455;DHT22;18084;53.028;8.834;2023-06-22T21:11:58;18.40;99.90
31455;DHT22;18084;53.028;8.834;2023-06-22T21:14:27;18.30;99.90
31455;DHT22;18084;53.028;8.834;2023-06-22T21:21:45;18.30;99.90
31455;DHT22;18084;53.028;8.834;2023-06-22T21:26:37;18.00;99.90
31455;DHT22;18084;53.028;8.834;2023-06-22T21:31:28;17.90;99.90
31455;DHT22;18084;53.028;8.834;2023-06-22T21:36:19;18.00;99.90
31455;DHT22;18084;53.028;8.834;2023-06-22T21:38:45;17.80;99.90
31455;DHT22;18084;53.028;8.834;2023-06-22T21:43:37;17.70;99.90
31455;DHT22;18084;53.028;8.834;2023-06-22T21:46:03;17.60;99.90
31455;DHT22;18084;53.028;8.834;2023-06-22T21:50:54;17.00;99.90
31455;DHT22;18084;53.028;8.834;2023-06-22T21:58:12;17.20;99.90
31455;DHT22;18084;53.028;8.834;2023-06-22T22:03:04;17.00;99.90
31455;DHT22;18084;53.028;8.834;2023-06-22T22:10:22;16.70;99.90
31455;DHT22;18084;53.028;8.834;2023-06-22T22:20:08;16.60;99.90
31455;DHT22;18084;53.028;8.834;2023-06-22T22:27:27;16.50;99.90
31455;DHT22;18084;53.028;8.834;2023-06-22T22:32:18;16.60;99.90
31455;DHT22;18084;53.028;8.834;2023-06-22T22:37:09;16.60;99.90
31455;DHT22;18084;53.028;8.834;2023-06-22T22:46:55;16.60;99.90
31455;DHT22;18084;53.028;8.834;2023-06-22T22:51:49;16.70;99.90
31455;DHT22;18084;53.028;8.834;2023-06-22T22:56:46;16.70;99.90
31455;DHT22;18084;53.028;8.834;2023-06-22T23:06:31;16.80;99.90
31455;DHT22;18084;53.028;8.834;2023-06-22T23:11:23;16.80;99.90
31455;DHT22;18084;53.028;8.834;2023-06-22T23:16:14;16.90;99.90
31455;DHT22;18084;53.028;8.834;2023-06-22T23:33:18;16.70;99.90
31455;DHT22;18084;53.028;8.834;2023-06-22T23:38:09;16.70;99.90
31455;DHT22;18084;53.028;8.834;2023-06-22T23:40:36;16.60;99.90
31455;DHT22;18084;53.028;8.834;2023-06-22T23:48:00;16.70;99.90
